Skip Navigation Links Skip Navigation Links

Current Weather

The William B Hartsfield Atlanta Intl, Atlanta

For information only: do not use for flight planning or navigation.
Latest weather
Observation time Tuesday, January 26, 2021 5:52 PM EST
Local time Tuesday, January 26, 2021 6:57 PM EST
Flight conditions Visual Meteorological Conditions
Winds
Wind direction West (270°)
Wind speed 7 mph
Visibility 10 mi.
Sky condition
Ceiling 9,500 ft. broken clouds
Cloud layer broken clouds 9,500 ft.
Cloud layer broken clouds 20,000 ft.
Temperature 63°F
Dewpoint 52°F
Altimeter 29.94 in.Hg
Derived measurements
Relative humidity 67%
Density altitude 1450 ft.
Sea-level pressure 29.92 in.Hg
Remarks
Automated weather observing station with precipitation discriminator.
Altocumulus castellanus clouds observed overhead.
METAR KATL 262252Z 27006KT 10SM BKN095 BKN200 17/11 A2994 RMK AO2 SLP133 ACC OHD-ALQDS T01720111

Settings

Location code

InnerDrive.Weather 4.0.6770.0 Release CLR 4.0.30319.42000
Copyright ©2018 Inner Drive Technology. All rights reserved. Portions Copyright ©1986-2018 David Braverman.

Find weather

Site navigation


Skip Navigation Links

Place info

Page info

PayPal - The safer, easier way to pay online!

Return home.

Copyright ©2021 Inner Drive Technology. Purveyors of fine, hand-crafted computer software. Page printed 2021-01-26T23:57:08 UTC.